Time;durP1;ratioP1;P1;durP2;ratioP2;P2;SDS_P1;SDS_P2;PMS_P1;PMS_P2;Temp;Humidity;BMP_temperature;BMP_pressure;BME280_temperature;BME280_humidity;BME280_pressure;Samples;Min_cycle;Max_cycle;Signal;HPM_P1;HPM_P2
2023/07/07 00:00:20;;;;;;;2.92;1.75;;;;;;;14.95;89.96;101302.41;4953695;29;20103;-80
2023/07/07 00:02:47;;;;;;;2.83;2.40;;;;;;;14.87;90.26;101306.06;4938139;29;20043;-79
2023/07/07 00:05:14;;;;;;;2.50;2.40;;;;;;;14.82;91.04;101296.47;4929386;28;20032;-79
2023/07/07 00:07:40;;;;;;;5.97;3.00;;;;;;;14.77;91.87;101306.19;4946853;29;20031;-78
2023/07/07 00:10:08;;;;;;;3.72;3.05;;;;;;;14.71;93.14;101305.41;4949978;29;20043;-81
2023/07/07 00:12:34;;;;;;;2.67;2.47;;;;;;;14.67;92.93;101305.50;4961763;28;20081;-79
2023/07/07 00:15:01;;;;;;;4.35;2.78;;;;;;;14.64;93.93;101309.03;4952046;28;20039;-78
2023/07/07 00:17:27;;;;;;;3.30;2.80;;;;;;;14.61;94.56;101308.19;4940652;29;20062;-79
2023/07/07 00:19:53;;;;;;;4.72;2.63;;;;;;;14.56;94.92;101302.97;4951267;28;20045;-78
2023/07/07 00:22:20;;;;;;;2.40;2.20;;;;;;;14.52;94.63;101310.06;4958783;28;20043;-77
2023/07/07 00:24:46;;;;;;;3.42;2.70;;;;;;;14.45;95.13;101308.41;4937410;28;20055;-78
2023/07/07 00:27:14;;;;;;;2.72;2.30;;;;;;;14.44;95.13;101311.06;4965879;28;20389;-78
2023/07/07 00:29:41;;;;;;;2.92;2.40;;;;;;;14.44;94.75;101308.44;4967030;28;20035;-79
2023/07/07 00:32:08;;;;;;;2.20;2.00;;;;;;;14.42;94.65;101311.09;4976370;28;20118;-80
2023/07/07 00:34:34;;;;;;;3.25;2.63;;;;;;;14.43;94.58;101311.94;4941636;28;20046;-78
2023/07/07 00:37:00;;;;;;;2.72;2.53;;;;;;;14.39;94.05;101312.00;4958866;28;20050;-78
2023/07/07 00:39:27;;;;;;;4.95;2.72;;;;;;;14.39;93.91;101316.38;4959873;28;20049;-78
2023/07/07 00:41:54;;;;;;;3.38;2.42;;;;;;;14.38;94.49;101319.94;4958566;28;20034;-78
2023/07/07 00:44:20;;;;;;;3.78;3.47;;;;;;;14.39;95.57;101325.19;4954385;28;20478;-79
2023/07/07 00:46:47;;;;;;;4.30;2.60;;;;;;;14.34;95.88;101326.13;4980042;28;20035;-79
2023/07/07 00:49:18;;;;;;;3.90;3.20;;;;;;;14.30;96.97;101325.31;4975326;28;20304;-78
2023/07/07 00:51:56;;;;;;;3.88;2.75;;;;;;;14.27;98.85;101327.09;4958090;28;20039;-84
2023/07/07 00:54:29;;;;;;;2.97;2.67;;;;;;;14.20;99.16;101323.69;4954622;28;20121;-78
2023/07/07 00:56:56;;;;;;;2.83;2.63;;;;;;;14.14;99.60;101329.88;4974371;28;20090;-82
2023/07/07 00:59:35;;;;;;;6.00;2.05;;;;;;;14.10;99.45;101330.81;4975683;28;20035;-78
2023/07/07 01:02:09;;;;;;;3.50;2.45;;;;;;;14.02;99.42;101330.91;4957651;28;20035;-80
2023/07/07 01:04:37;;;;;;;;;;;;;;;14.01;100.00;101333.56;4961341;28;20049;-78
2023/07/07 01:07:09;;;;;;;3.33;3.03;;;;;;;13.95;100.00;101324.00;4940246;29;19918;-79
2023/07/07 01:09:36;;;;;;;5.53;2.63;;;;;;;13.91;99.56;101330.19;4981803;28;20089;-79
2023/07/07 01:12:02;;;;;;;2.60;2.20;;;;;;;13.90;99.69;101328.44;4965051;28;20054;-79
2023/07/07 01:14:32;;;;;;;4.13;2.67;;;;;;;13.86;99.47;101329.38;4974218;28;20046;-79
2023/07/07 01:17:33;;;;;;;3.60;2.45;;;;;;;13.81;99.91;101316.25;4960923;28;20038;-81
2023/07/07 01:20:30;;;;;;;5.75;2.33;;;;;;;13.80;100.00;101313.66;4970485;28;20430;-78
2023/07/07 01:23:49;;;;;;;3.20;2.88;;;;;;;13.77;100.00;101319.81;4973511;28;20045;-79
2023/07/07 01:26:57;;;;;;;2.50;2.30;;;;;;;13.71;100.00;101322.50;4965999;28;20043;-79
2023/07/07 01:29:50;;;;;;;3.55;2.22;;;;;;;13.68;100.00;101325.19;4976589;28;20098;-79
2023/07/07 01:32:20;;;;;;;3.90;2.42;;;;;;;13.64;100.00;101321.72;4975621;28;20094;-80
2023/07/07 01:34:48;;;;;;;3.33;2.42;;;;;;;13.63;100.00;101327.84;4973636;28;20047;-82
2023/07/07 01:37:14;;;;;;;3.15;2.40;;;;;;;13.58;100.00;101321.78;4958168;28;20046;-79
2023/07/07 01:39:44;;;;;;;4.35;2.40;;;;;;;13.54;100.00;101323.56;4957662;28;20046;-78
2023/07/07 01:42:22;;;;;;;4.75;2.80;;;;;;;13.51;100.00;101323.59;4957183;28;20078;-77
2023/07/07 01:45:17;;;;;;;2.88;2.13;;;;;;;13.47;100.00;101321.91;4957316;28;20109;-81
2023/07/07 01:47:55;;;;;;;6.80;3.03;;;;;;;13.43;100.00;101324.56;4962929;28;20138;-78
2023/07/07 01:50:27;;;;;;;6.78;2.38;;;;;;;13.37;100.00;101326.38;4957448;28;20109;-77
2023/07/07 01:52:58;;;;;;;3.72;2.72;;;;;;;13.35;100.00;101317.59;4974658;28;20062;-80
2023/07/07 01:55:28;;;;;;;3.05;2.70;;;;;;;13.34;100.00;101325.50;4973702;28;20031;-78
2023/07/07 01:57:59;;;;;;;3.53;2.45;;;;;;;13.32;100.00;101325.50;4964031;28;20126;-80
2023/07/07 02:00:27;;;;;;;4.05;2.60;;;;;;;13.30;100.00;101329.06;4961196;28;20090;-78
2023/07/07 02:02:58;;;;;;;4.78;2.50;;;;;;;13.25;100.00;101315.94;4975943;28;20065;-78
2023/07/07 02:05:26;;;;;;;3.80;2.65;;;;;;;13.22;100.00;101326.50;4973779;28;20043;-79
2023/07/07 02:07:53;;;;;;;3.78;2.15;;;;;;;13.20;100.00;101326.50;4958001;28;20035;-78
2023/07/07 02:10:19;;;;;;;2.38;1.88;;;;;;;13.20;100.00;101323.00;4941638;28;20060;-79
2023/07/07 02:12:47;;;;;;;3.35;2.40;;;;;;;13.16;100.00;101321.28;4957386;28;20114;-78
2023/07/07 02:15:14;;;;;;;4.68;1.98;;;;;;;13.18;100.00;101323.03;4973113;28;20042;-78
2023/07/07 02:17:40;;;;;;;3.03;2.03;;;;;;;13.18;100.00;101322.13;4973192;28;20035;-79
2023/07/07 02:20:09;;;;;;;2.40;2.20;;;;;;;13.17;100.00;101325.66;4972794;28;20062;-83
2023/07/07 02:22:38;;;;;;;2.13;1.98;;;;;;;13.19;100.00;101323.88;4956686;28;20042;-79
2023/07/07 02:25:06;;;;;;;4.13;2.28;;;;;;;13.20;100.00;101330.88;4973164;28;20054;-78
2023/07/07 02:27:32;;;;;;;4.93;2.70;;;;;;;13.18;100.00;101324.75;4955909;28;20110;-79
2023/07/07 02:29:59;;;;;;;5.78;2.88;;;;;;;13.16;100.00;101323.91;4960963;28;20090;-79
2023/07/07 02:32:26;;;;;;;2.30;2.10;;;;;;;13.12;100.00;101327.47;4972132;28;20049;-78
2023/07/07 02:34:55;;;;;;;3.78;2.50;;;;;;;13.11;100.00;101328.34;4948030;29;20442;-79
2023/07/07 02:37:23;;;;;;;2.75;1.98;;;;;;;13.07;100.00;101328.38;4956763;28;20038;-82
2023/07/07 02:39:49;;;;;;;3.00;2.25;;;;;;;13.07;100.00;101328.38;4956258;28;20035;-78
2023/07/07 02:42:16;;;;;;;3.60;2.38;;;;;;;13.06;100.00;101323.13;4972875;28;20045;-79
2023/07/07 02:44:42;;;;;;;2.58;2.10;;;;;;;13.07;100.00;101324.88;4973160;28;20042;-78
2023/07/07 02:47:10;;;;;;;1.75;1.50;;;;;;;13.10;100.00;101324.81;4970964;28;20035;-85
2023/07/07 02:49:37;;;;;;;2.38;2.15;;;;;;;13.12;100.00;101330.09;4969170;28;20145;-81
2023/07/07 02:52:05;;;;;;;3.67;1.65;;;;;;;13.12;100.00;101330.09;4946594;28;20039;-81
2023/07/07 02:54:32;;;;;;;3.17;2.03;;;;;;;13.17;100.00;101325.66;4954121;28;20114;-81
2023/07/07 02:56:58;;;;;;;3.90;2.08;;;;;;;13.20;100.00;101329.13;4968058;28;20039;-79
2023/07/07 02:59:25;;;;;;;2.92;1.95;;;;;;;13.22;100.00;101326.50;4956814;28;20043;-78
2023/07/07 03:01:51;;;;;;;3.25;1.75;;;;;;;13.22;100.00;101332.63;4965557;28;20054;-78
2023/07/07 03:04:20;;;;;;;1.73;1.27;;;;;;;13.22;100.00;101332.63;4974200;28;20078;-83
2023/07/07 03:06:47;;;;;;;1.90;1.80;;;;;;;13.23;99.88;101328.22;4956374;28;20053;-78
2023/07/07 03:09:14;;;;;;;1.40;1.30;;;;;;;13.28;99.72;101334.31;4972103;28;20142;-78
2023/07/07 03:11:40;;;;;;;2.17;1.33;;;;;;;13.33;99.18;101336.91;4973332;28;20050;-77
2023/07/07 03:14:07;;;;;;;4.45;1.52;;;;;;;13.40;98.72;101338.59;4937264;29;20094;-81
2023/07/07 03:16:33;;;;;;;2.75;1.73;;;;;;;13.39;98.23;101340.38;4954712;28;20043;-77
2023/07/07 03:19:05;;;;;;;2.15;1.83;;;;;;;13.37;98.05;101336.03;4969292;28;20062;-78
2023/07/07 03:21:32;;;;;;;3.60;1.73;;;;;;;13.36;97.95;101337.78;4959061;28;20043;-80
2023/07/07 03:23:59;;;;;;;2.38;1.60;;;;;;;13.37;98.03;101343.91;4956177;28;20482;-77
2023/07/07 03:26:28;;;;;;;2.17;1.90;;;;;;;13.38;97.55;101346.53;4958088;28;20059;-78
2023/07/07 03:28:55;;;;;;;2.33;1.13;;;;;;;13.41;97.17;101340.38;4986066;28;20039;-78
2023/07/07 03:31:29;;;;;;;2.92;2.45;;;;;;;13.41;96.97;101343.00;4940316;28;20093;-78
2023/07/07 03:33:59;;;;;;;2.03;1.83;;;;;;;13.38;96.83;101345.66;4957112;28;20047;-78
2023/07/07 03:36:30;;;;;;;1.73;1.63;;;;;;;13.38;96.93;101343.03;4940855;28;20098;-77
2023/07/07 03:38:57;;;;;;;2.28;1.60;;;;;;;13.40;96.60;101347.41;4956983;28;20050;-78
2023/07/07 03:41:27;;;;;;;2.45;1.70;;;;;;;13.43;96.50;101349.13;4968130;28;20053;-78
2023/07/07 03:43:55;;;;;;;2.38;1.58;;;;;;;13.44;96.15;101350.88;4955431;28;20042;-78
2023/07/07 03:46:24;;;;;;;3.42;2.25;;;;;;;13.46;96.06;101348.22;4985994;28;20580;-78
2023/07/07 03:48:53;;;;;;;2.60;1.15;;;;;;;13.47;95.60;101347.34;4996681;28;20097;-78
2023/07/07 03:51:21;;;;;;;3.85;1.52;;;;;;;13.47;95.72;101355.22;4979471;28;20043;-78
2023/07/07 03:53:49;;;;;;;2.10;1.88;;;;;;;13.50;95.18;101353.41;4995292;28;20042;-78
2023/07/07 03:56:16;;;;;;;2.08;1.70;;;;;;;13.51;94.90;101357.81;4995193;28;20547;-82
2023/07/07 03:58:43;;;;;;;5.93;2.22;;;;;;;13.53;94.86;101361.28;4991989;28;20591;-80
2023/07/07 04:01:13;;;;;;;3.90;1.60;;;;;;;13.55;94.69;101362.13;4978785;28;20035;-78
2023/07/07 04:03:40;;;;;;;1.50;1.25;;;;;;;13.61;94.51;101357.69;4959736;28;20045;-79
2023/07/07 04:06:07;;;;;;;2.55;1.98;;;;;;;13.68;94.39;101356.75;4940335;29;20517;-82
2023/07/07 04:08:33;;;;;;;1.95;1.63;;;;;;;13.71;93.95;101357.63;4969340;28;20062;-83
2023/07/07 04:11:07;;;;;;;1.88;1.35;;;;;;;13.76;93.92;101359.31;4975449;28;20038;-79
2023/07/07 04:13:37;;;;;;;4.28;1.80;;;;;;;13.83;93.52;101360.97;4975355;28;20046;-79
2023/07/07 04:16:32;;;;;;;1.73;1.63;;;;;;;13.88;92.90;101360.06;4959634;28;20042;-82
2023/07/07 04:18:59;;;;;;;2.90;1.33;;;;;;;13.92;92.54;101357.38;4961215;28;20066;-79
2023/07/07 04:21:29;;;;;;;3.83;1.75;;;;;;;13.89;92.49;101361.78;4976250;28;20049;-78
2023/07/07 04:23:59;;;;;;;2.28;1.38;;;;;;;13.89;92.45;101372.31;4965581;28;20030;-78
2023/07/07 04:26:28;;;;;;;3.72;2.00;;;;;;;13.92;92.20;101375.81;4963014;28;20429;-79
2023/07/07 04:28:57;;;;;;;3.50;1.60;;;;;;;13.95;92.18;101376.66;4974607;28;20197;-79
2023/07/07 04:31:25;;;;;;;5.78;1.98;;;;;;;14.03;91.69;101384.47;4963895;28;20038;-80
2023/07/07 04:33:52;;;;;;;3.05;2.00;;;;;;;14.09;91.43;101378.22;4974782;28;20038;-86
2023/07/07 04:36:19;;;;;;;1.80;1.60;;;;;;;14.13;91.14;101375.56;4954425;28;20035;-80
2023/07/07 04:38:47;;;;;;;4.90;1.50;;;;;;;14.15;90.82;101380.81;4978904;28;20035;-79
2023/07/07 04:41:27;;;;;;;2.78;1.52;;;;;;;14.23;90.52;101386.84;4945876;28;20047;-82
2023/07/07 04:44:00;;;;;;;5.38;2.08;;;;;;;14.31;90.11;101387.59;4928973;29;20134;-78
2023/07/07 04:46:36;;;;;;;4.03;2.03;;;;;;;14.33;89.64;101392.88;4950510;28;20046;-77
2023/07/07 04:49:06;;;;;;;5.05;1.83;;;;;;;14.33;89.58;101385.84;4976023;28;20035;-78
2023/07/07 04:51:36;;;;;;;3.15;1.58;;;;;;;14.44;89.28;101390.09;4975706;28;20046;-81
2023/07/07 04:54:03;;;;;;;3.63;1.95;;;;;;;14.47;88.81;101388.28;4958447;28;20070;-79
2023/07/07 04:56:30;;;;;;;5.28;2.72;;;;;;;14.51;88.68;101395.25;4974689;28;20043;-79
2023/07/07 04:58:58;;;;;;;5.70;1.98;;;;;;;14.59;88.25;101399.53;4974820;28;20069;-81
2023/07/07 05:01:28;;;;;;;1.88;1.70;;;;;;;14.68;87.46;101396.84;4974183;28;20041;-79
2023/07/07 05:03:59;;;;;;;3.22;1.67;;;;;;;14.75;86.92;101384.44;4945986;28;20039;-79
2023/07/07 05:06:29;;;;;;;3.47;2.17;;;;;;;14.81;86.40;101382.56;4934149;28;20094;-78
2023/07/07 05:08:56;;;;;;;1.98;1.88;;;;;;;14.87;85.95;101394.78;4957828;28;20382;-78
2023/07/07 05:11:26;;;;;;;3.20;2.10;;;;;;;14.96;85.85;101396.41;4962276;28;20050;-78
2023/07/07 05:13:53;;;;;;;4.10;1.70;;;;;;;15.03;85.06;101395.41;4958364;28;20034;-79
2023/07/07 05:16:23;;;;;;;4.68;1.58;;;;;;;15.10;84.65;101393.56;4965349;28;20047;-78
2023/07/07 05:18:50;;;;;;;4.22;1.70;;;;;;;15.16;84.34;101394.34;4941726;28;20050;-79
2023/07/07 05:21:21;;;;;;;1.42;1.40;;;;;;;15.21;84.16;101392.50;4953172;29;20047;-79
2023/07/07 05:23:47;;;;;;;3.13;1.67;;;;;;;15.28;83.50;101392.38;4938837;29;20043;-78
2023/07/07 05:26:14;;;;;;;7.55;1.98;;;;;;;15.32;83.37;101383.53;4958564;28;20046;-79
2023/07/07 05:28:40;;;;;;;2.85;2.45;;;;;;;15.39;83.12;101393.94;4974105;28;20039;-79
2023/07/07 05:31:08;;;;;;;3.55;1.80;;;;;;;15.48;83.01;101394.69;4975497;28;20098;-82
2023/07/07 05:33:37;;;;;;;2.72;1.73;;;;;;;15.53;82.67;101398.13;4974006;28;20402;-81
2023/07/07 05:36:08;;;;;;;5.90;1.80;;;;;;;15.57;82.19;101388.41;4958296;28;20038;-78
2023/07/07 05:38:35;;;;;;;4.05;1.52;;;;;;;15.64;81.98;101400.56;4958429;28;20043;-79
2023/07/07 05:41:01;;;;;;;2.22;1.42;;;;;;;15.67;82.07;101405.78;4942459;28;20414;-79
2023/07/07 05:43:28;;;;;;;2.15;1.10;;;;;;;15.71;81.82;101400.44;4958353;28;20378;-79
2023/07/07 05:46:00;;;;;;;2.67;1.92;;;;;;;15.77;81.67;101401.22;4974179;28;20645;-79
2023/07/07 05:48:27;;;;;;;2.70;1.77;;;;;;;15.86;81.12;101388.72;4944820;28;20038;-78
2023/07/07 05:50:58;;;;;;;4.63;2.03;;;;;;;15.96;80.54;101400.00;4977052;28;20048;-79
2023/07/07 05:53:25;;;;;;;2.03;1.40;;;;;;;16.04;80.48;101402.47;4977115;28;20046;-79
2023/07/07 05:55:52;;;;;;;3.75;1.60;;;;;;;16.12;80.18;101407.63;4974316;28;20096;-78
2023/07/07 05:58:19;;;;;;;1.58;1.48;;;;;;;16.17;79.77;101406.63;4959927;28;20054;-79
2023/07/07 06:00:45;;;;;;;1.92;1.27;;;;;;;16.25;79.43;101406.47;4964091;28;20037;-84
2023/07/07 06:03:12;;;;;;;3.97;1.38;;;;;;;16.33;79.29;101409.81;4941427;28;20039;-79
2023/07/07 06:05:39;;;;;;;3.15;1.73;;;;;;;16.39;79.21;101408.81;4972584;28;20037;-78
2023/07/07 06:08:05;;;;;;;5.53;2.67;;;;;;;16.47;78.92;101412.16;4957490;28;20042;-79
2023/07/07 06:10:33;;;;;;;1.63;1.50;;;;;;;16.54;78.14;101413.78;4938217;29;20102;-79
2023/07/07 06:13:01;;;;;;;5.82;1.13;;;;;;;16.66;77.68;101417.94;4926035;28;20125;-79
2023/07/07 06:15:27;;;;;;;3.28;2.13;;;;;;;16.72;77.75;101413.41;4965592;28;20076;-79
2023/07/07 06:17:54;;;;;;;1.95;1.85;;;;;;;16.77;77.79;101420.31;4971787;28;20089;-79
2023/07/07 06:20:20;;;;;;;1.73;1.63;;;;;;;16.86;77.54;101421.91;4940877;28;20055;-79
2023/07/07 06:22:47;;;;;;;1.92;1.58;;;;;;;16.92;77.20;101415.63;4957361;28;20484;-78
2023/07/07 06:25:13;;;;;;;2.97;1.20;;;;;;;17.01;76.89;101420.69;4956543;28;20038;-83
2023/07/07 06:27:40;;;;;;;2.72;1.50;;;;;;;17.13;76.37;101425.72;4956695;28;20045;-81
2023/07/07 06:30:07;;;;;;;2.40;1.65;;;;;;;17.24;75.45;101422.78;4971830;28;20045;-80
2023/07/07 06:32:34;;;;;;;2.05;1.45;;;;;;;17.32;74.19;101418.16;4936835;29;20050;-79
2023/07/07 06:35:00;;;;;;;1.92;1.10;;;;;;;17.40;74.35;101420.63;4941949;28;20394;-83
2023/07/07 06:37:27;;;;;;;2.15;1.55;;;;;;;17.46;74.12;101419.63;4956836;28;20066;-79
2023/07/07 06:39:53;;;;;;;4.65;1.42;;;;;;;17.52;74.26;101427.38;4945400;28;20517;-79
2023/07/07 06:42:19;;;;;;;2.28;1.05;;;;;;;17.62;73.92;101438.63;4957604;28;20035;-78
2023/07/07 06:44:46;;;;;;;7.00;1.67;;;;;;;17.69;74.00;101434.88;4946406;28;20039;-78
2023/07/07 06:47:16;;;;;;;4.05;1.80;;;;;;;17.79;73.81;101439.03;4960398;28;20039;-79
2023/07/07 06:49:43;;;;;;;1.40;1.30;;;;;;;17.88;73.29;101432.63;4973491;28;20046;-81
2023/07/07 06:52:09;;;;;;;2.15;1.98;;;;;;;17.98;72.43;101435.94;4940849;28;20545;-78
2023/07/07 06:54:36;;;;;;;5.25;1.63;;;;;;;18.04;72.54;101429.59;4972786;28;20078;-79
2023/07/07 06:57:02;;;;;;;8.10;1.40;;;;;;;18.08;72.12;101437.44;4970526;28;20037;-80
2023/07/07 06:59:29;;;;;;;1.67;1.40;;;;;;;18.15;72.22;101435.47;4964290;28;20058;-80
2023/07/07 07:01:55;;;;;;;1.77;1.67;;;;;;;18.23;71.34;101432.59;4955511;28;20086;-79
2023/07/07 07:04:22;;;;;;;2.17;1.50;;;;;;;18.35;70.95;101437.53;4957049;28;20042;-78
2023/07/07 07:06:48;;;;;;;2.40;1.23;;;;;;;18.44;70.12;101433.75;4973606;28;20050;-79
2023/07/07 07:09:15;;;;;;;2.95;1.13;;;;;;;18.56;68.91;101429.88;4972930;28;20046;-79
2023/07/07 07:11:41;;;;;;;4.43;1.88;;;;;;;18.65;68.83;101440.19;4974608;28;20042;-78
2023/07/07 07:14:08;;;;;;;1.77;1.35;;;;;;;18.72;67.73;101435.56;4973614;28;20037;-78
2023/07/07 07:16:34;;;;;;;1.67;1.58;;;;;;;18.84;66.86;101437.88;4975498;28;20035;-79
2023/07/07 07:19:01;;;;;;;2.67;1.70;;;;;;;18.93;66.28;101432.31;4976615;28;20051;-79
2023/07/07 07:21:27;;;;;;;1.55;0.88;;;;;;;19.07;65.65;101434.50;4960866;28;20039;-78
2023/07/07 07:23:54;;;;;;;2.97;1.42;;;;;;;19.24;64.77;101435.75;4949863;28;20469;-79
2023/07/07 07:26:21;;;;;;;1.80;1.70;;;;;;;19.47;64.53;101425.22;4960355;28;20045;-80
2023/07/07 07:28:48;;;;;;;3.00;0.98;;;;;;;19.88;62.39;101424.75;4950274;28;20102;-78
2023/07/07 07:31:14;;;;;;;1.55;1.30;;;;;;;20.39;61.00;101428.22;4966277;28;20031;-79
2023/07/07 07:33:41;;;;;;;1.80;1.35;;;;;;;20.95;59.61;101431.38;4976411;28;20034;-80
2023/07/07 07:36:07;;;;;;;4.25;1.15;;;;;;;21.59;57.76;101421.69;4959925;28;20414;-78
2023/07/07 07:38:34;;;;;;;2.20;0.93;;;;;;;22.34;56.02;101429.94;4960336;28;20501;-79
2023/07/07 07:41:01;;;;;;;1.15;1.05;;;;;;;23.15;53.64;101421.72;4944417;28;20066;-79
2023/07/07 07:43:28;;;;;;;1.60;1.45;;;;;;;23.76;51.15;101417.72;4971103;28;20128;-79
2023/07/07 07:45:55;;;;;;;1.27;1.17;;;;;;;24.23;47.39;101421.50;4975915;28;20038;-80
2023/07/07 07:48:22;;;;;;;2.00;1.40;;;;;;;24.58;47.03;101418.72;4960884;28;20122;-79
2023/07/07 07:50:48;;;;;;;2.30;1.00;;;;;;;24.72;45.29;101421.50;4960372;28;20054;-79
2023/07/07 07:53:15;;;;;;;1.83;1.58;;;;;;;25.03;44.44;101418.88;4944703;28;20363;-79
2023/07/07 07:55:41;;;;;;;2.47;1.00;;;;;;;25.37;43.29;101420.50;4960561;28;20038;-79
2023/07/07 07:58:08;;;;;;;4.07;1.02;;;;;;;25.82;43.05;101422.31;4960149;28;20470;-79
2023/07/07 08:00:34;;;;;;;2.33;1.10;;;;;;;26.15;42.05;101435.50;4960180;28;20094;-79
2023/07/07 08:03:01;;;;;;;1.25;1.15;;;;;;;26.75;40.23;101425.44;4960201;28;20058;-79
2023/07/07 08:05:27;;;;;;;3.15;1.33;;;;;;;26.99;40.00;101428.34;4960194;28;20094;-79
2023/07/07 08:07:54;;;;;;;2.30;1.00;;;;;;;27.49;39.28;101417.00;4959721;28;20042;-79
2023/07/07 08:10:20;;;;;;;2.92;1.27;;;;;;;28.14;37.46;101429.53;4976496;28;20113;-80
2023/07/07 08:12:47;;;;;;;3.63;1.30;;;;;;;28.26;36.67;101430.50;4969945;28;20039;-81
2023/07/07 08:15:13;;;;;;;1.65;1.38;;;;;;;28.23;37.00;101431.56;4973573;28;20047;-80
2023/07/07 08:17:40;;;;;;;1.85;1.35;;;;;;;28.63;35.92;101421.56;4959816;28;20039;-80
2023/07/07 08:20:10;;;;;;;1.20;1.00;;;;;;;28.90;35.64;101429.47;4959230;28;20051;-85
2023/07/07 08:22:36;;;;;;;4.55;1.20;;;;;;;29.30;35.46;101429.19;4977131;28;20053;-80
2023/07/07 08:25:03;;;;;;;1.58;0.80;;;;;;;29.84;34.82;101433.16;4959982;28;20094;-82
2023/07/07 08:27:29;;;;;;;1.70;1.40;;;;;;;30.11;33.67;101434.66;4943748;28;20496;-79
2023/07/07 08:29:56;;;;;;;1.73;0.98;;;;;;;30.71;33.06;101434.38;4956308;28;20035;-79
2023/07/07 08:32:23;;;;;;;4.63;1.17;;;;;;;31.04;31.23;101437.94;4960162;28;20046;-80
2023/07/07 08:34:53;;;;;;;3.95;1.35;;;;;;;31.40;31.40;101430.44;4963213;28;20490;-81
2023/07/07 08:37:20;;;;;;;0.93;0.90;;;;;;;31.49;30.36;101435.06;4942274;28;20129;-81
2023/07/07 08:39:49;;;;;;;1.60;1.00;;;;;;;31.63;30.53;101439.34;4963622;28;20039;-81
2023/07/07 08:42:32;;;;;;;0.80;0.80;;;;;;;31.78;28.67;101433.59;4944532;28;20050;-81
2023/07/07 08:45:02;;;;;;;0.73;0.73;;;;;;;31.66;29.79;101428.22;4943089;28;20467;-80
2023/07/07 08:47:51;;;;;;;1.60;1.08;;;;;;;32.16;28.53;101438.34;4959111;28;20053;-80
2023/07/07 08:50:38;;;;;;;2.28;1.10;;;;;;;32.31;27.31;101429.88;4976369;28;20751;-79
2023/07/07 08:53:32;;;;;;;0.98;0.93;;;;;;;31.02;26.32;101446.19;4978835;28;20042;-80
2023/07/07 08:56:35;;;;;;;2.17;0.82;;;;;;;30.97;28.72;101434.91;4935606;29;20120;-80
2023/07/07 08:59:33;;;;;;;1.30;1.13;;;;;;;31.51;28.93;101430.41;4960332;28;20042;-79
2023/07/07 09:02:31;;;;;;;2.40;0.88;;;;;;;32.37;27.44;101434.72;4960189;28;20031;-80
2023/07/07 09:05:30;;;;;;;2.70;1.13;;;;;;;33.12;26.32;101442.44;4940148;29;20050;-81
2023/07/07 09:08:32;;;;;;;1.20;1.00;;;;;;;33.86;25.37;101443.69;4963135;28;20041;-79
2023/07/07 09:11:36;;;;;;;1.10;0.98;;;;;;;34.07;26.18;101438.03;4959373;28;20114;-78
2023/07/07 09:14:03;;;;;;;1.38;0.68;;;;;;;33.67;25.05;101444.56;4958631;28;20041;-79
2023/07/07 09:16:36;;;;;;;6.68;1.25;;;;;;;34.20;25.60;101434.13;4958375;28;20216;-80
2023/07/07 09:19:16;;;;;;;3.13;1.10;;;;;;;34.61;22.00;101440.06;4974615;28;20138;-80
2023/07/07 09:22:09;;;;;;;1.63;0.73;;;;;;;34.45;22.91;101443.47;4976013;28;20042;-81
2023/07/07 09:25:05;;;;;;;0.93;0.93;;;;;;;34.84;21.80;101443.25;4958265;28;20062;-80
2023/07/07 09:27:44;;;;;;;2.28;0.88;;;;;;;34.67;22.56;101444.03;4936418;29;20043;-80
2023/07/07 09:30:25;;;;;;;1.23;0.90;;;;;;;33.89;23.59;101448.81;4956422;28;20504;-80
2023/07/07 09:32:51;;;;;;;1.40;1.00;;;;;;;35.06;22.72;101441.94;4957435;28;20039;-81
2023/07/07 09:35:21;;;;;;;2.67;1.40;;;;;;;35.83;22.36;101435.91;4957825;28;20043;-80
2023/07/07 09:38:17;;;;;;;2.60;0.75;;;;;;;36.20;22.34;101440.19;4973736;28;20043;-83
2023/07/07 09:41:08;;;;;;;2.45;0.95;;;;;;;36.25;20.59;101440.56;4960215;28;20482;-82
2023/07/07 09:44:20;;;;;;;1.33;1.07;;;;;;;37.12;20.15;101442.19;4963278;28;20043;-86
2023/07/07 09:47:05;;;;;;;0.87;0.87;;;;;;;37.74;18.33;101441.66;4981240;28;20097;-86
2023/07/07 09:49:54;;;;;;;0.73;0.70;;;;;;;37.38;19.34;101443.94;4994324;28;20047;-81
2023/07/07 09:52:39;;;;;;;1.15;0.77;;;;;;;38.01;18.99;101445.00;4959680;28;20046;-81
2023/07/07 09:55:16;;;;;;;0.90;0.90;;;;;;;38.41;19.39;101444.19;4963592;28;20039;-81
2023/07/07 09:58:11;;;;;;;1.17;0.88;;;;;;;37.83;19.22;101450.69;4954257;28;20400;-81
2023/07/07 10:00:39;;;;;;;2.05;0.90;;;;;;;37.62;19.70;101440.28;4951960;28;20488;-84
2023/07/07 10:03:19;;;;;;;2.50;0.82;;;;;;;37.89;19.26;101443.69;4968279;28;20583;-86
2023/07/07 10:05:46;;;;;;;4.32;0.65;;;;;;;38.46;19.38;101445.38;4943931;28;20039;-85
2023/07/07 10:08:15;;;;;;;1.42;0.88;;;;;;;38.73;18.78;101440.44;4963655;28;20069;-84
2023/07/07 10:10:43;;;;;;;1.13;1.10;;;;;;;38.46;18.97;101448.09;4955407;28;20075;-85
2023/07/07 10:13:12;;;;;;;1.08;0.95;;;;;;;38.29;18.87;101444.59;4954541;28;20050;-84
2023/07/07 10:16:29;;;;;;;0.85;0.80;;;;;;;38.23;18.89;101432.44;4954290;28;20072;-82
2023/07/07 10:18:57;;;;;;;1.42;0.82;;;;;;;37.99;18.87;101435.28;4924930;28;20043;-85
2023/07/07 10:21:24;;;;;;;1.05;0.98;;;;;;;37.95;19.51;101433.94;4959743;28;20039;-80
2023/07/07 10:23:52;;;;;;;1.60;0.82;;;;;;;38.65;18.56;101433.09;4958104;28;20119;-80
2023/07/07 10:26:19;;;;;;;1.05;1.05;;;;;;;39.43;17.92;101433.06;4973468;28;20039;-80
2023/07/07 10:28:48;;;;;;;1.70;0.95;;;;;;;39.17;17.65;101425.22;4972781;28;20050;-80
2023/07/07 10:31:18;;;;;;;1.33;1.23;;;;;;;38.30;18.88;101423.56;4950471;28;20466;-82
2023/07/07 10:33:44;;;;;;;1.90;1.20;;;;;;;38.08;19.13;101428.75;4956572;28;20050;-81
2023/07/07 10:36:26;;;;;;;0.95;0.80;;;;;;;38.42;18.38;101424.84;4972769;28;20053;-81
2023/07/07 10:38:57;;;;;;;1.10;0.75;;;;;;;38.66;18.30;101426.59;4956829;28;20049;-80
2023/07/07 10:41:25;;;;;;;1.30;1.02;;;;;;;38.76;17.91;101422.81;4956973;28;20034;-80
2023/07/07 10:43:52;;;;;;;0.88;0.88;;;;;;;38.62;18.64;101421.66;4964435;28;20038;-80
2023/07/07 10:46:19;;;;;;;1.45;1.08;;;;;;;39.18;18.64;101416.03;4974684;28;20074;-81
2023/07/07 10:48:47;;;;;;;1.40;1.02;;;;;;;39.92;17.26;101417.16;4958280;28;20492;-81
2023/07/07 10:51:33;;;;;;;1.13;1.13;;;;;;;39.71;17.05;101421.47;4956074;28;20034;-83
2023/07/07 10:54:17;;;;;;;1.02;1.00;;;;;;;39.60;17.35;101414.56;4975740;28;20083;-81
2023/07/07 10:56:48;;;;;;;1.52;0.77;;;;;;;39.99;17.45;101420.84;4972902;28;20050;-82
2023/07/07 10:59:33;;;;;;;0.90;0.90;;;;;;;40.65;16.97;101411.75;4956461;28;20051;-82
2023/07/07 11:02:35;;;;;;;1.95;1.30;;;;;;;40.21;17.29;101415.44;4956307;28;20131;-83
2023/07/07 11:05:20;;;;;;;1.23;1.17;;;;;;;40.48;16.90;101417.47;4953736;28;20043;-81
2023/07/07 11:08:26;;;;;;;1.15;1.02;;;;;;;40.13;17.12;101417.25;4972734;28;20043;-83
2023/07/07 11:11:12;;;;;;;1.00;0.85;;;;;;;39.59;17.39;101418.34;4953334;29;20071;-81
2023/07/07 11:13:46;;;;;;;1.85;1.00;;;;;;;39.74;17.40;101417.53;4968072;28;20046;-82
2023/07/07 11:16:33;;;;;;;1.17;1.00;;;;;;;39.72;17.40;101419.63;4959685;28;20034;-84
2023/07/07 11:19:25;;;;;;;1.30;0.88;;;;;;;41.12;16.54;101414.94;4953532;28;20095;-81
2023/07/07 11:22:17;;;;;;;1.08;1.08;;;;;;;41.59;16.71;101418.06;4937960;29;20043;-81
2023/07/07 11:24:57;;;;;;;0.98;0.95;;;;;;;41.43;16.71;101425.56;4973107;28;20034;-81
2023/07/07 11:27:46;;;;;;;1.00;0.95;;;;;;;40.99;17.16;101421.19;4988413;28;20039;-82
2023/07/07 11:30:55;;;;;;;1.20;1.20;;;;;;;41.87;16.68;101422.72;4973857;28;20035;-81
2023/07/07 11:33:46;;;;;;;0.73;0.60;;;;;;;42.04;15.93;101424.06;4942177;28;20047;-80
2023/07/07 11:36:54;;;;;;;0.90;0.90;;;;;;;41.81;15.61;101416.09;4957337;28;20390;-80
2023/07/07 11:39:42;;;;;;;3.22;3.00;;;;;;;42.23;16.01;101410.59;4956631;28;20122;-79
2023/07/07 11:42:48;;;;;;;2.10;1.10;;;;;;;42.43;15.04;101417.03;4972852;28;20046;-82
2023/07/07 11:45:38;;;;;;;0.82;0.82;;;;;;;42.58;15.48;101408.63;4954527;28;20046;-80
2023/07/07 11:48:33;;;;;;;0.73;0.73;;;;;;;43.26;14.69;101415.06;4973720;28;20099;-80